Time;durP1;ratioP1;P1;durP2;ratioP2;P2;SDS_P1;SDS_P2;PMS_P1;PMS_P2;Temp;Humidity;BMP_temperature;BMP_pressure;BME280_temperature;BME280_humidity;BME280_pressure;Samples;Min_cycle;Max_cycle;Signal;HPM_P1;HPM_P2
2021/05/01 00:03:59;;;;;;;105.60;54.93;;;11.30;93.10;;;;;;8330249;28;20841;-73
2021/05/01 00:08:00;;;;;;;107.63;54.47;;;11.30;93.30;;;;;;8312049;28;21016;-73
2021/05/01 00:12:01;;;;;;;108.80;56.97;;;11.30;93.30;;;;;;8316310;28;20263;-73
2021/05/01 00:16:09;;;;;;;98.53;53.53;;;11.30;93.30;;;;;;8336208;28;20572;-73
2021/05/01 00:20:12;;;;;;;107.40;55.07;;;11.30;93.30;;;;;;8308289;28;20826;-73
2021/05/01 00:24:16;;;;;;;100.40;56.70;;;11.30;93.20;;;;;;8311489;28;20188;-73
2021/05/01 00:28:16;;;;;;;110.70;54.73;;;11.30;93.20;;;;;;8311399;28;20461;-73
2021/05/01 00:32:17;;;;;;;111.00;56.63;;;11.20;93.20;;;;;;8314221;28;20458;-73
2021/05/01 00:36:22;;;;;;;117.00;58.13;;;11.20;93.20;;;;;;8309200;28;20751;-73
2021/05/01 00:40:27;;;;;;;96.57;53.23;;;11.20;93.30;;;;;;8336187;28;21122;-73
2021/05/01 00:44:27;;;;;;;104.50;57.70;;;11.20;93.40;;;;;;8314245;28;21259;-73
2021/05/01 00:48:28;;;;;;;98.77;51.80;;;11.20;93.20;;;;;;8312390;28;20509;-73
2021/05/01 00:52:28;;;;;;;90.73;50.70;;;11.10;93.10;;;;;;8293837;28;20862;-73
2021/05/01 00:56:37;;;;;;;95.07;49.50;;;11.10;92.90;;;;;;8334031;28;20263;-73
2021/05/01 01:00:52;;;;;;;101.60;51.70;;;11.00;92.70;;;;;;8302450;28;20484;-73
2021/05/01 01:04:54;;;;;;;87.70;45.40;;;11.00;92.70;;;;;;8326376;28;20450;-73
2021/05/01 01:08:55;;;;;;;108.20;50.80;;;10.90;92.70;;;;;;8303119;28;20453;-73
2021/05/01 01:12:56;;;;;;;94.67;49.80;;;11.00;92.70;;;;;;8296800;28;20537;-73
2021/05/01 01:16:58;;;;;;;91.17;48.83;;;10.90;92.60;;;;;;8311899;28;20459;-73
2021/05/01 01:21:03;;;;;;;97.03;48.77;;;10.90;92.60;;;;;;8314513;28;20314;-73
2021/05/01 01:25:05;;;;;;;96.37;52.50;;;10.90;92.40;;;;;;8307697;28;20524;-73
2021/05/01 01:29:07;;;;;;;87.43;47.47;;;10.90;92.20;;;;;;8313918;28;20561;-73
2021/05/01 01:33:12;;;;;;;92.50;51.77;;;10.90;92.10;;;;;;8331368;28;20470;-73
2021/05/01 01:37:12;;;;;;;85.50;47.40;;;10.90;92.20;;;;;;8303429;28;20536;-73
2021/05/01 01:41:13;;;;;;;100.53;48.10;;;10.70;92.00;;;;;;8314072;28;20287;-73
2021/05/01 01:45:18;;;;;;;91.87;48.37;;;10.70;92.10;;;;;;8311797;28;20722;-73
2021/05/01 01:49:23;;;;;;;92.43;48.37;;;10.60;92.20;;;;;;8316159;28;20231;-73
2021/05/01 01:53:24;;;;;;;95.47;51.73;;;10.50;92.10;;;;;;8304944;28;20454;-73
2021/05/01 01:57:24;;;;;;;103.43;52.63;;;10.40;92.20;;;;;;8301245;28;20457;-73
2021/05/01 02:01:27;;;;;;;95.20;50.37;;;10.40;92.10;;;;;;8312775;28;20508;-73
2021/05/01 02:05:28;;;;;;;95.00;51.30;;;10.30;92.00;;;;;;8307635;28;20191;-73
2021/05/01 02:09:28;;;;;;;97.70;54.23;;;10.10;91.90;;;;;;8311418;28;20458;-73
2021/05/01 02:13:33;;;;;;;116.00;55.77;;;9.90;91.90;;;;;;8310102;28;20225;-73
2021/05/01 02:17:43;;;;;;;102.33;55.07;;;9.70;92.10;;;;;;8329809;28;20488;-73
2021/05/01 02:21:58;;;;;;;117.43;56.00;;;9.50;92.20;;;;;;8328019;28;20946;-72
2021/05/01 02:26:02;;;;;;;118.80;56.40;;;9.30;92.30;;;;;;8328568;28;20798;-73
2021/05/01 02:30:10;;;;;;;110.57;57.10;;;9.10;92.40;;;;;;8332366;28;20450;-72
2021/05/01 02:34:10;;;;;;;117.73;61.23;;;9.00;92.50;;;;;;8316191;28;20469;-73
2021/05/01 02:38:11;;;;;;;114.60;54.90;;;8.80;92.70;;;;;;8293873;28;20502;-73
2021/05/01 02:42:12;;;;;;;121.53;61.10;;;8.70;92.80;;;;;;8297909;28;20236;-73
2021/05/01 02:46:12;;;;;;;133.13;62.30;;;8.60;92.90;;;;;;8317836;28;20192;-73
2021/05/01 02:50:15;;;;;;;126.70;62.93;;;8.50;93.00;;;;;;8313898;28;20220;-73
2021/05/01 02:54:16;;;;;;;132.13;66.30;;;8.40;93.10;;;;;;8312086;28;20279;-73
2021/05/01 02:58:17;;;;;;;135.50;64.03;;;8.30;93.60;;;;;;8278950;28;20462;-73
2021/05/01 03:02:21;;;;;;;138.43;62.37;;;8.40;94.00;;;;;;8323836;28;20486;-73
2021/05/01 03:06:22;;;;;;;127.87;61.83;;;8.40;94.10;;;;;;8317589;28;20450;-73
2021/05/01 03:10:25;;;;;;;128.17;59.40;;;8.50;94.10;;;;;;8270928;28;20266;-73
2021/05/01 03:14:26;;;;;;;133.10;61.70;;;8.50;94.10;;;;;;8307203;28;20457;-73
2021/05/01 03:18:30;;;;;;;130.80;60.73;;;8.60;94.20;;;;;;8331030;28;20461;-73
2021/05/01 03:22:31;;;;;;;129.87;64.77;;;8.60;94.30;;;;;;8300096;28;20495;-74
2021/05/01 03:26:32;;;;;;;137.97;65.57;;;8.70;94.20;;;;;;8309827;28;20752;-73
2021/05/01 03:30:36;;;;;;;134.17;62.03;;;8.70;94.00;;;;;;8294390;28;20466;-73
2021/05/01 03:34:44;;;;;;;144.23;66.70;;;8.60;93.80;;;;;;8301000;28;20282;-73
2021/05/01 03:38:45;;;;;;;148.67;69.23;;;8.60;93.90;;;;;;8312750;28;20438;-73
2021/05/01 03:42:49;;;;;;;149.17;76.17;;;8.50;94.00;;;;;;8306681;28;20452;-73
2021/05/01 03:46:54;;;;;;;162.13;76.67;;;8.50;94.30;;;;;;8318284;28;20447;-73
2021/05/01 03:50:55;;;;;;;131.70;67.17;;;8.50;94.70;;;;;;8312573;28;20447;-73
2021/05/01 03:54:59;;;;;;;160.13;72.77;;;8.70;94.90;;;;;;8299247;28;20500;-73
2021/05/01 03:59:00;;;;;;;132.50;61.90;;;8.80;94.90;;;;;;8276684;28;20454;-73
2021/05/01 04:03:05;;;;;;;131.80;64.80;;;9.00;94.90;;;;;;8327893;28;20184;-73
2021/05/01 04:07:05;;;;;;;125.03;61.27;;;9.10;94.70;;;;;;8304962;28;20443;-75
2021/05/01 04:11:06;;;;;;;129.20;60.67;;;9.20;94.70;;;;;;8311144;28;20481;-73
2021/05/01 04:15:07;;;;;;;127.53;59.07;;;9.30;94.50;;;;;;8311530;28;20670;-73
2021/05/01 04:19:13;;;;;;;123.33;63.70;;;9.30;94.40;;;;;;8326477;28;20760;-73
2021/05/01 04:23:13;;;;;;;125.50;63.87;;;9.40;94.30;;;;;;8305029;28;20455;-73
2021/05/01 04:27:18;;;;;;;125.13;61.23;;;9.40;94.20;;;;;;8326447;28;20451;-72
2021/05/01 04:31:20;;;;;;;126.17;66.63;;;9.50;94.10;;;;;;8304900;28;20970;-73
2021/05/01 04:35:21;;;;;;;126.27;63.20;;;9.50;93.80;;;;;;8311421;28;20479;-73
2021/05/01 04:39:22;;;;;;;121.60;60.07;;;9.60;93.80;;;;;;8310012;28;20474;-73
2021/05/01 04:43:30;;;;;;;119.43;61.27;;;9.60;93.70;;;;;;8325130;28;20473;-73
2021/05/01 04:47:30;;;;;;;126.17;63.60;;;9.60;93.70;;;;;;8304925;28;20480;-73
2021/05/01 04:51:35;;;;;;;120.93;62.10;;;9.70;93.70;;;;;;8299414;28;20448;-73
2021/05/01 04:55:39;;;;;;;120.60;58.70;;;9.70;93.40;;;;;;8327187;28;20475;-74
2021/05/01 04:59:40;;;;;;;112.10;55.87;;;9.80;93.50;;;;;;8307590;28;20466;-74
2021/05/01 05:03:47;;;;;;;116.33;59.20;;;9.80;93.30;;;;;;8313905;28;20191;-73
2021/05/01 05:07:48;;;;;;;106.60;59.10;;;9.90;93.10;;;;;;8295845;28;20970;-73
2021/05/01 05:11:52;;;;;;;117.63;59.73;;;9.90;92.90;;;;;;8288227;28;20977;-73
2021/05/01 05:15:53;;;;;;;122.40;55.60;;;10.00;92.70;;;;;;8301722;28;20194;-73
2021/05/01 05:19:58;;;;;;;121.17;58.93;;;10.00;92.60;;;;;;8326053;28;20476;-74
2021/05/01 05:23:58;;;;;;;125.03;60.30;;;10.00;92.40;;;;;;8307359;28;20446;-73
2021/05/01 05:28:04;;;;;;;122.47;61.70;;;10.10;92.40;;;;;;8311465;28;20203;-74
2021/05/01 05:32:09;;;;;;;101.53;55.83;;;10.30;92.30;;;;;;8295136;28;20584;-73
2021/05/01 05:36:19;;;;;;;105.50;54.93;;;10.40;91.80;;;;;;8292579;28;20464;-73
2021/05/01 05:40:20;;;;;;;106.87;51.03;;;10.50;91.50;;;;;;8277319;28;20509;-73
2021/05/01 05:44:23;;;;;;;101.50;53.40;;;10.60;91.30;;;;;;8290188;28;20195;-73
2021/05/01 05:48:23;;;;;;;97.57;51.47;;;10.50;91.10;;;;;;8293347;28;20464;-75
2021/05/01 05:52:24;;;;;;;91.23;51.10;;;10.60;91.10;;;;;;8307166;28;20485;-72
2021/05/01 05:56:25;;;;;;;89.53;48.70;;;10.60;90.80;;;;;;8307392;28;20253;-73
2021/05/01 06:00:26;;;;;;;97.87;52.37;;;10.50;90.80;;;;;;8318388;28;20473;-73
2021/05/01 06:04:49;;;;;;;103.43;53.00;;;10.50;90.80;;;;;;8310698;28;20209;-74
2021/05/01 06:08:55;;;;;;;103.73;56.40;;;10.50;90.80;;;;;;8310590;28;20210;-74
2021/05/01 06:12:56;;;;;;;109.30;55.47;;;10.40;91.00;;;;;;8307392;28;20503;-72
2021/05/01 06:16:59;;;;;;;102.90;55.50;;;10.40;91.20;;;;;;8310097;28;20473;-72
2021/05/01 06:21:14;;;;;;;109.30;54.23;;;10.60;91.30;;;;;;8310840;28;20484;-74
2021/05/01 06:25:17;;;;;;;107.60;54.50;;;10.80;90.70;;;;;;8311813;28;20450;-74
2021/05/01 06:29:18;;;;;;;101.47;52.30;;;11.10;90.50;;;;;;8320408;28;20442;-73
2021/05/01 06:33:25;;;;;;;103.53;55.70;;;11.40;90.30;;;;;;8331034;28;20520;-73
2021/05/01 06:37:26;;;;;;;106.63;56.93;;;11.80;89.70;;;;;;8318845;28;20998;-74
2021/05/01 06:41:39;;;;;;;109.47;57.53;;;12.30;88.60;;;;;;8313857;28;20478;-80
2021/05/01 06:45:41;;;;;;;105.53;55.93;;;12.60;87.60;;;;;;8335269;28;20951;-72
2021/05/01 06:50:08;;;;;;;97.37;53.00;;;12.50;86.10;;;;;;8310146;28;20440;-73
2021/05/01 06:54:10;;;;;;;99.10;52.17;;;12.50;87.70;;;;;;8320358;28;20444;-73
2021/05/01 06:58:21;;;;;;;108.23;57.30;;;13.00;86.60;;;;;;8327900;28;20452;-73
2021/05/01 07:02:24;;;;;;;94.67;49.10;;;13.40;84.40;;;;;;8301951;28;20574;-74
2021/05/01 07:06:25;;;;;;;99.70;53.27;;;13.60;83.40;;;;;;8308663;28;21341;-73
2021/05/01 07:10:26;;;;;;;96.77;51.90;;;13.80;82.20;;;;;;8297996;28;20974;-72
2021/05/01 07:14:28;;;;;;;97.43;53.27;;;13.90;80.90;;;;;;8307565;28;20601;-72
2021/05/01 07:18:31;;;;;;;90.53;47.77;;;13.90;80.50;;;;;;8316932;28;20533;-72
2021/05/01 07:22:34;;;;;;;90.33;49.43;;;13.80;80.60;;;;;;8310993;28;20478;-73
2021/05/01 07:26:40;;;;;;;86.97;48.20;;;13.70;81.30;;;;;;8315668;28;20456;-73
2021/05/01 07:30:46;;;;;;;98.97;52.60;;;13.50;81.20;;;;;;8313114;28;20516;-73
2021/05/01 07:34:51;;;;;;;79.77;48.20;;;13.70;81.70;;;;;;8333231;28;20481;-73
2021/05/01 07:38:53;;;;;;;79.03;43.90;;;13.90;81.40;;;;;;8328263;28;20487;-73
2021/05/01 07:42:58;;;;;;;73.50;43.70;;;13.80;80.70;;;;;;8310365;28;20462;-73
2021/05/01 07:47:01;;;;;;;95.90;47.10;;;13.80;80.30;;;;;;8326155;28;20445;-73
2021/05/01 07:51:05;;;;;;;75.37;43.57;;;13.80;80.20;;;;;;8316770;28;20459;-76
2021/05/01 07:55:06;;;;;;;71.40;40.90;;;14.20;80.20;;;;;;8313785;28;20457;-73
2021/05/01 07:59:07;;;;;;;76.77;45.17;;;14.70;78.10;;;;;;8318071;28;20637;-72
2021/05/01 08:03:08;;;;;;;58.23;34.33;;;15.00;76.50;;;;;;8314726;28;20930;-73
2021/05/01 08:07:09;;;;;;;63.57;37.97;;;15.10;74.90;;;;;;8305156;28;20446;-73
2021/05/01 08:11:11;;;;;;;68.00;41.83;;;15.40;74.10;;;;;;8310604;28;20433;-73
2021/05/01 08:15:14;;;;;;;67.83;42.90;;;15.90;72.40;;;;;;8311256;28;20193;-75
2021/05/01 08:19:16;;;;;;;58.50;39.67;;;16.10;70.80;;;;;;8311593;28;20472;-75
2021/05/01 08:23:17;;;;;;;68.90;37.43;;;16.00;70.00;;;;;;8312662;28;20476;-73
2021/05/01 08:27:26;;;;;;;66.50;39.70;;;15.90;69.50;;;;;;8330487;28;21001;-74
2021/05/01 08:31:27;;;;;;;52.40;33.03;;;16.00;68.90;;;;;;8310642;28;20472;-73
2021/05/01 08:35:33;;;;;;;51.13;30.90;;;16.30;67.70;;;;;;8313117;28;20445;-75
2021/05/01 08:39:35;;;;;;;45.43;30.50;;;16.30;66.00;;;;;;8319822;28;21026;-74
2021/05/01 08:43:38;;;;;;;52.43;32.80;;;16.60;64.10;;;;;;8308598;28;20521;-74
2021/05/01 08:47:41;;;;;;;48.80;31.10;;;17.30;61.40;;;;;;8297247;28;20433;-74
2021/05/01 08:51:45;;;;;;;47.20;31.63;;;17.80;58.80;;;;;;8308619;28;20791;-73
2021/05/01 08:55:57;;;;;;;54.57;34.53;;;18.20;57.50;;;;;;8304004;28;20479;-73
2021/05/01 09:00:03;;;;;;;44.73;27.80;;;18.50;57.40;;;;;;8320071;28;20470;-73
2021/05/01 09:04:10;;;;;;;36.10;27.50;;;19.20;55.90;;;;;;8322965;28;20422;-74
2021/05/01 09:08:26;;;;;;;34.80;25.57;;;19.60;52.90;;;;;;8320407;28;20410;-73
2021/05/01 09:12:45;;;;;;;45.10;25.70;;;19.90;50.70;;;;;;8315825;28;20417;-73
2021/05/01 09:16:57;;;;;;;32.70;23.23;;;19.90;48.70;;;;;;8307872;28;20443;-73
2021/05/01 09:21:16;;;;;;;35.90;24.43;;;20.00;48.90;;;;;;8304329;28;20557;-70
2021/05/01 09:25:26;;;;;;;29.47;23.77;;;20.60;48.40;;;;;;8323057;28;20451;-74
2021/05/01 09:29:39;;;;;;;34.07;23.57;;;20.90;47.60;;;;;;8308267;28;20450;-73
2021/05/01 09:33:52;;;;;;;38.43;24.40;;;20.80;45.90;;;;;;8305774;28;20462;-74
2021/05/01 09:37:53;;;;;;;36.20;24.30;;;20.20;46.60;;;;;;8301579;28;20443;-73
2021/05/01 09:41:54;;;;;;;31.33;21.20;;;19.70;48.20;;;;;;8300535;28;20433;-74
2021/05/01 09:45:57;;;;;;;29.73;19.57;;;19.90;47.90;;;;;;8304392;28;20420;-73
2021/05/01 09:50:26;;;;;;;36.07;21.33;;;19.90;46.20;;;;;;8306490;28;20483;-73
2021/05/01 09:54:33;;;;;;;28.20;20.00;;;19.50;45.90;;;;;;8313119;28;20413;-72
2021/05/01 09:58:53;;;;;;;26.53;20.23;;;19.70;46.40;;;;;;8300727;28;20424;-73
2021/05/01 10:02:59;;;;;;;19.70;15.00;;;19.90;46.50;;;;;;8304813;28;20931;-74
2021/05/01 10:07:09;;;;;;;25.07;16.73;;;20.30;44.00;;;;;;8297177;28;20421;-74
2021/05/01 10:11:12;;;;;;;23.47;17.23;;;20.50;41.70;;;;;;8295921;28;20531;-73
2021/05/01 10:15:25;;;;;;;26.40;19.10;;;20.60;42.60;;;;;;8293401;28;20781;-73
2021/05/01 10:20:07;;;;;;;22.20;17.93;;;20.90;43.30;;;;;;8295003;28;20490;-73
2021/05/01 10:24:10;;;;;;;23.83;17.90;;;21.30;42.90;;;;;;8304309;28;20451;-72
2021/05/01 10:28:18;;;;;;;27.03;20.73;;;21.30;42.30;;;;;;8301375;28;20538;-72
2021/05/01 10:32:34;;;;;;;25.07;18.50;;;21.00;42.50;;;;;;8304151;28;20991;-75
2021/05/01 10:36:35;;;;;;;26.30;19.23;;;20.80;43.00;;;;;;8303818;28;20448;-73
2021/05/01 10:40:58;;;;;;;26.53;18.60;;;20.60;43.80;;;;;;8303434;28;20473;-75
2021/05/01 10:45:02;;;;;;;22.23;15.67;;;20.90;42.40;;;;;;8306237;28;20959;-74
2021/05/01 10:49:06;;;;;;;21.43;18.13;;;21.10;42.60;;;;;;8302602;28;20495;-75
2021/05/01 10:53:17;;;;;;;27.77;17.80;;;21.50;40.20;;;;;;8305495;28;20446;-73
2021/05/01 10:57:18;;;;;;;24.00;18.97;;;21.70;40.70;;;;;;8308789;28;20443;-75
2021/05/01 11:01:35;;;;;;;29.93;21.07;;;21.80;40.90;;;;;;8309576;28;21366;-75
2021/05/01 11:05:41;;;;;;;26.00;18.50;;;22.00;41.10;;;;;;8305467;28;20192;-74
2021/05/01 11:09:56;;;;;;;20.47;16.80;;;21.90;41.10;;;;;;8306140;28;20473;-73
2021/05/01 11:14:30;;;;;;;19.77;15.27;;;22.00;40.30;;;;;;8315865;28;20601;-73
2021/05/01 11:18:39;;;;;;;20.43;15.37;;;22.40;39.10;;;;;;8298098;28;20477;-72
2021/05/01 11:22:47;;;;;;;24.90;16.07;;;22.40;38.90;;;;;;8318369;28;20478;-73
2021/05/01 11:26:53;;;;;;;30.50;16.93;;;22.10;38.10;;;;;;8317831;28;20537;-74
2021/05/01 11:30:55;;;;;;;20.83;17.03;;;22.00;38.60;;;;;;8295828;28;20446;-74
2021/05/01 11:35:19;;;;;;;18.77;15.07;;;22.10;38.90;;;;;;8302971;28;20451;-74
2021/05/01 11:39:21;;;;;;;18.00;13.30;;;22.30;39.00;;;;;;8311911;28;20501;-71
2021/05/01 11:43:27;;;;;;;18.30;13.57;;;22.50;37.40;;;;;;8304164;28;20442;-74
2021/05/01 11:47:29;;;;;;;28.90;14.93;;;22.60;37.40;;;;;;8308485;28;20447;-72
2021/05/01 11:52:00;;;;;;;19.37;15.30;;;22.50;36.40;;;;;;8294381;28;20459;-72
2021/05/01 11:56:35;;;;;;;16.17;13.10;;;22.40;37.50;;;;;;8300033;28;20520;-72
2021/05/01 12:00:38;;;;;;;16.23;13.83;;;22.70;36.20;;;;;;8298821;28;20474;-70
2021/05/01 12:04:47;;;;;;;12.30;10.77;;;22.80;35.20;;;;;;8290565;28;20974;-74
2021/05/01 12:08:49;;;;;;;13.73;12.33;;;22.70;34.80;;;;;;8286916;28;20443;-72
2021/05/01 12:13:11;;;;;;;14.70;12.17;;;22.70;34.60;;;;;;8295851;28;20485;-73
2021/05/01 12:17:14;;;;;;;15.73;12.80;;;22.90;34.60;;;;;;8299472;28;20502;-74
2021/05/01 12:21:27;;;;;;;18.33;13.63;;;23.10;35.50;;;;;;8303839;28;20472;-78
2021/05/01 12:25:42;;;;;;;23.70;14.07;;;23.20;35.90;;;;;;8304292;28;20446;-75
2021/05/01 12:29:43;;;;;;;12.00;10.73;;;22.90;35.80;;;;;;8296810;28;20451;-73
2021/05/01 12:33:53;;;;;;;21.00;13.70;;;22.60;36.00;;;;;;8310791;28;20488;-73
2021/05/01 12:37:59;;;;;;;16.07;11.40;;;22.50;34.70;;;;;;8293196;28;20479;-73
2021/05/01 12:42:18;;;;;;;15.03;11.20;;;22.10;35.00;;;;;;8286175;28;20470;-74
2021/05/01 12:46:31;;;;;;;14.00;9.40;;;22.50;35.50;;;;;;8308124;28;20412;-73
2021/05/01 12:50:36;;;;;;;22.70;13.10;;;22.70;34.80;;;;;;8303814;28;20432;-73
2021/05/01 12:54:42;;;;;;;16.27;12.90;;;23.00;34.60;;;;;;8310823;28;20438;-73
2021/05/01 12:58:44;;;;;;;16.30;12.67;;;22.90;35.00;;;;;;8295776;28;20496;-73
2021/05/01 13:03:05;;;;;;;15.17;12.10;;;22.80;36.60;;;;;;8293939;28;20601;-72
2021/05/01 13:07:12;;;;;;;15.63;13.27;;;23.00;36.40;;;;;;8295095;28;20504;-74
2021/05/01 13:11:12;;;;;;;16.60;13.47;;;22.80;36.20;;;;;;8271078;28;20454;-74
2021/05/01 13:15:15;;;;;;;18.77;13.67;;;22.70;36.30;;;;;;8284858;28;20447;-74
2021/05/01 13:19:27;;;;;;;14.20;12.77;;;22.90;36.60;;;;;;8290409;28;20269;-73
2021/05/01 13:23:44;;;;;;;14.17;11.60;;;23.10;36.00;;;;;;8303797;28;20417;-73
2021/05/01 13:27:52;;;;;;;12.93;11.07;;;23.20;35.80;;;;;;8293031;28;20421;-76
2021/05/01 13:31:58;;;;;;;14.63;9.93;;;23.40;36.00;;;;;;8290562;28;20441;-74
2021/05/01 13:36:02;;;;;;;13.90;11.50;;;23.10;36.40;;;;;;8305785;28;20526;-73
2021/05/01 13:40:05;;;;;;;17.00;11.47;;;22.30;35.40;;;;;;8298026;28;20471;-76
2021/05/01 13:44:16;;;;;;;13.40;11.20;;;21.60;37.70;;;;;;8318887;28;20491;-73
2021/05/01 13:48:19;;;;;;;14.00;11.20;;;21.40;36.30;;;;;;8295297;28;20499;-73
2021/05/01 13:52:45;;;;;;;13.43;9.30;;;21.30;36.50;;;;;;8299444;28;20462;-73
2021/05/01 13:56:47;;;;;;;23.40;10.97;;;21.30;36.40;;;;;;8295035;28;20467;-73
2021/05/01 14:00:52;;;;;;;14.57;11.37;;;21.40;37.60;;;;;;8322555;28;20525;-75
2021/05/01 14:04:56;;;;;;;10.00;8.90;;;21.70;36.70;;;;;;8301279;28;20449;-75
2021/05/01 14:09:07;;;;;;;13.03;9.73;;;21.50;35.40;;;;;;8309126;28;20462;-73
2021/05/01 14:13:30;;;;;;;10.30;9.27;;;21.10;36.40;;;;;;8293430;28;20539;-74
2021/05/01 14:17:32;;;;;;;19.90;9.83;;;20.60;37.30;;;;;;8303016;28;20495;-74
2021/05/01 14:21:34;;;;;;;11.67;9.63;;;20.40;38.70;;;;;;8310441;28;20440;-76
2021/05/01 14:25:38;;;;;;;13.83;8.57;;;20.20;38.10;;;;;;8301953;28;20438;-75
2021/05/01 14:29:56;;;;;;;13.17;8.00;;;20.00;39.50;;;;;;8307464;28;20444;-75
2021/05/01 14:33:59;;;;;;;12.03;7.30;;;20.40;39.00;;;;;;8314772;28;20457;-77
2021/05/01 14:38:01;;;;;;;10.60;8.13;;;20.60;38.50;;;;;;8316507;28;20504;-78
2021/05/01 14:42:16;;;;;;;11.20;8.03;;;20.60;39.60;;;;;;8304138;28;20539;-75
2021/05/01 14:46:18;;;;;;;11.87;9.37;;;20.20;38.90;;;;;;8303797;28;20562;-74
2021/05/01 14:50:33;;;;;;;13.17;8.23;;;19.90;39.30;;;;;;8309262;28;20484;-75
2021/05/01 14:54:37;;;;;;;8.97;8.07;;;19.90;39.50;;;;;;8280927;28;20461;-75
2021/05/01 14:58:52;;;;;;;11.17;8.87;;;19.80;40.20;;;;;;8310209;28;20455;-78
2021/05/01 15:03:02;;;;;;;10.87;8.57;;;19.60;40.00;;;;;;8313777;28;20475;-78
2021/05/01 15:07:07;;;;;;;8.93;7.20;;;19.40;40.60;;;;;;8309875;28;20474;-77
2021/05/01 15:11:14;;;;;;;11.30;7.40;;;19.30;40.60;;;;;;8321268;28;20449;-76
2021/05/01 15:15:15;;;;;;;12.00;8.20;;;19.20;39.90;;;;;;8315062;28;20503;-77
2021/05/01 15:19:17;;;;;;;10.23;7.80;;;19.10;41.20;;;;;;8311698;28;20467;-75
2021/05/01 15:23:23;;;;;;;8.57;7.70;;;18.80;40.50;;;;;;8305987;28;20442;-75
2021/05/01 15:27:33;;;;;;;9.40;8.50;;;18.50;41.00;;;;;;8309443;28;20554;-76
2021/05/01 15:31:33;;;;;;;10.80;7.57;;;18.40;41.70;;;;;;8297546;28;20496;-76
2021/05/01 15:35:37;;;;;;;9.20;6.57;;;18.70;42.00;;;;;;8305053;28;20450;-75
2021/05/01 15:39:46;;;;;;;10.53;6.80;;;19.20;40.70;;;;;;8322140;28;20220;-75
2021/05/01 15:43:51;;;;;;;9.83;7.20;;;19.20;39.40;;;;;;8301574;28;20450;-76
2021/05/01 15:47:51;;;;;;;7.57;6.77;;;19.00;40.00;;;;;;8306579;28;20532;-75
2021/05/01 15:51:57;;;;;;;17.20;9.00;;;18.70;40.60;;;;;;8323729;28;20192;-76
2021/05/01 15:55:57;;;;;;;9.00;7.70;;;18.50;41.50;;;;;;8298731;28;20452;-75
2021/05/01 15:59:58;;;;;;;9.83;7.73;;;18.30;40.30;;;;;;8299704;28;20478;-74
2021/05/01 16:03:59;;;;;;;13.40;7.90;;;18.10;40.10;;;;;;8293078;28;20201;-74
2021/05/01 16:08:00;;;;;;;10.03;8.40;;;18.00;40.40;;;;;;8297225;28;20455;-75
2021/05/01 16:12:03;;;;;;;9.00;7.70;;;18.00;41.10;;;;;;8299072;28;20204;-75
2021/05/01 16:16:08;;;;;;;8.43;7.70;;;18.00;41.40;;;;;;8322609;28;20181;-75
2021/05/01 16:20:13;;;;;;;13.83;7.57;;;17.80;41.60;;;;;;8301427;28;20482;-76
2021/05/01 16:24:20;;;;;;;7.53;6.93;;;17.60;41.50;;;;;;8301848;28;20829;-75
2021/05/01 16:28:24;;;;;;;7.80;7.03;;;17.60;42.20;;;;;;8303064;28;20919;-73
2021/05/01 16:32:25;;;;;;;8.63;7.83;;;17.60;42.50;;;;;;8303789;28;20465;-74
2021/05/01 16:36:26;;;;;;;8.97;7.70;;;17.50;43.30;;;;;;8298541;28;20544;-73
2021/05/01 16:40:28;;;;;;;9.20;8.30;;;17.50;42.20;;;;;;8302591;28;20968;-72
2021/05/01 16:44:29;;;;;;;8.60;7.70;;;17.40;43.00;;;;;;8300770;28;20204;-76
2021/05/01 16:48:30;;;;;;;11.50;7.73;;;17.30;42.20;;;;;;8300591;28;20448;-72
2021/05/01 16:52:33;;;;;;;13.13;7.50;;;17.30;42.00;;;;;;8302028;28;20478;-74
2021/05/01 16:56:34;;;;;;;8.70;7.77;;;17.10;42.80;;;;;;8295347;28;20475;-75
2021/05/01 17:00:38;;;;;;;11.97;9.33;;;17.00;43.40;;;;;;8296981;28;20473;-74
2021/05/01 17:04:46;;;;;;;9.07;8.27;;;16.80;42.60;;;;;;8297912;28;20557;-74
2021/05/01 17:08:48;;;;;;;10.73;7.33;;;16.70;43.20;;;;;;8299586;28;20957;-71
2021/05/01 17:12:48;;;;;;;9.40;8.40;;;16.50;43.80;;;;;;8321697;28;20478;-74
2021/05/01 17:16:50;;;;;;;8.80;7.80;;;16.40;44.60;;;;;;8301846;28;20673;-73
2021/05/01 17:20:50;;;;;;;14.97;8.63;;;16.30;44.50;;;;;;8295293;28;20251;-74
2021/05/01 17:24:51;;;;;;;7.63;6.80;;;16.10;44.30;;;;;;8299251;28;20454;-74
2021/05/01 17:28:52;;;;;;;10.93;9.70;;;16.00;44.50;;;;;;8305408;28;20198;-74
2021/05/01 17:32:54;;;;;;;10.37;9.37;;;15.90;44.70;;;;;;8281267;28;20224;-73
2021/05/01 17:36:55;;;;;;;8.67;7.60;;;15.70;45.00;;;;;;8299794;28;21245;-73
2021/05/01 17:41:06;;;;;;;11.97;9.70;;;15.70;45.30;;;;;;8322545;28;20467;-74
2021/05/01 17:45:14;;;;;;;19.67;10.23;;;15.50;46.90;;;;;;8299815;28;20475;-74
2021/05/01 17:49:16;;;;;;;13.00;11.00;;;15.30;47.10;;;;;;8308304;28;20435;-74
2021/05/01 17:53:17;;;;;;;9.83;8.30;;;15.20;47.40;;;;;;8307423;28;20453;-75
2021/05/01 17:57:26;;;;;;;11.93;9.10;;;15.10;47.60;;;;;;8303725;28;20447;-75
2021/05/01 18:01:27;;;;;;;10.27;8.40;;;14.90;47.10;;;;;;8298230;28;20216;-74
2021/05/01 18:05:31;;;;;;;13.43;8.73;;;14.80;47.60;;;;;;8296396;28;20446;-75
2021/05/01 18:09:33;;;;;;;16.77;9.70;;;14.70;48.70;;;;;;8281561;28;20457;-74
2021/05/01 18:13:40;;;;;;;11.90;8.83;;;14.60;48.80;;;;;;8282933;28;20278;-73
2021/05/01 18:17:44;;;;;;;11.37;9.17;;;14.50;49.10;;;;;;8321190;28;20547;-74
2021/05/01 18:21:45;;;;;;;10.07;9.13;;;14.40;49.50;;;;;;8299190;28;20477;-75
2021/05/01 18:25:52;;;;;;;10.50;8.43;;;14.20;49.80;;;;;;8299413;28;20449;-75
2021/05/01 18:30:04;;;;;;;15.40;9.27;;;14.10;50.40;;;;;;8305295;28;20483;-74
2021/05/01 18:34:06;;;;;;;12.07;8.90;;;13.90;50.80;;;;;;8308825;28;21182;-73
2021/05/01 18:38:07;;;;;;;12.07;9.57;;;13.80;51.10;;;;;;8301022;28;20562;-73
2021/05/01 18:42:10;;;;;;;11.30;8.33;;;13.60;51.30;;;;;;8319442;28;20465;-73
2021/05/01 18:46:17;;;;;;;12.60;9.50;;;13.50;52.00;;;;;;8320808;28;20549;-73
2021/05/01 18:50:18;;;;;;;15.93;10.43;;;13.50;52.50;;;;;;8304746;28;20535;-74
2021/05/01 18:54:26;;;;;;;20.63;11.63;;;13.40;53.00;;;;;;8309137;28;20466;-74
2021/05/01 18:58:27;;;;;;;12.70;8.83;;;13.30;54.10;;;;;;8322628;28;20470;-73
2021/05/01 19:02:30;;;;;;;10.47;9.27;;;13.20;54.50;;;;;;8312581;28;20474;-74
2021/05/01 19:06:31;;;;;;;21.87;10.70;;;13.10;55.10;;;;;;8300519;28;20199;-73
2021/05/01 19:10:43;;;;;;;12.67;9.20;;;13.10;55.70;;;;;;8318909;28;20862;-74
2021/05/01 19:14:49;;;;;;;11.70;9.10;;;13.00;56.30;;;;;;8298815;28;20445;-74
2021/05/01 19:18:54;;;;;;;11.87;10.20;;;13.00;57.20;;;;;;8297367;28;20244;-74
2021/05/01 19:22:59;;;;;;;11.80;8.60;;;12.90;57.70;;;;;;8325430;28;20480;-73
2021/05/01 19:27:01;;;;;;;13.30;9.87;;;12.80;58.50;;;;;;8296683;28;20482;-73
2021/05/01 19:31:07;;;;;;;14.87;10.43;;;12.70;58.50;;;;;;8306216;28;20450;-73
2021/05/01 19:35:11;;;;;;;15.50;10.40;;;12.70;58.90;;;;;;8317345;28;20483;-73
2021/05/01 19:39:21;;;;;;;12.90;9.17;;;12.60;58.80;;;;;;8309292;28;20450;-72
2021/05/01 19:43:24;;;;;;;9.90;8.90;;;12.60;59.20;;;;;;8305920;28;20486;-73
2021/05/01 19:47:30;;;;;;;15.93;11.90;;;12.50;60.00;;;;;;8314340;28;20518;-73
2021/05/01 19:51:33;;;;;;;14.57;10.57;;;12.50;60.30;;;;;;8311730;28;20434;-74
2021/05/01 19:55:41;;;;;;;11.77;10.00;;;12.40;61.20;;;;;;8325822;28;20558;-74
2021/05/01 19:59:50;;;;;;;18.53;13.57;;;12.40;61.70;;;;;;8292186;28;20520;-74
2021/05/01 20:03:57;;;;;;;22.10;10.90;;;12.30;62.10;;;;;;8313139;28;20443;-73
2021/05/01 20:08:01;;;;;;;20.17;11.60;;;12.30;62.70;;;;;;8319537;28;20470;-75
2021/05/01 20:12:08;;;;;;;13.67;11.57;;;12.20;62.80;;;;;;8328024;28;21007;-74
2021/05/01 20:16:09;;;;;;;16.57;11.70;;;12.20;62.90;;;;;;8309696;28;20459;-74
2021/05/01 20:20:12;;;;;;;23.40;13.27;;;12.10;63.60;;;;;;8321276;28;20488;-73
2021/05/01 20:24:18;;;;;;;18.43;12.80;;;12.10;64.00;;;;;;8313903;28;20450;-74
2021/05/01 20:28:22;;;;;;;16.37;12.40;;;12.10;64.80;;;;;;8310781;28;22411;-76
2021/05/01 20:32:25;;;;;;;17.93;12.50;;;12.00;65.60;;;;;;8316672;28;20459;-75
2021/05/01 20:36:25;;;;;;;15.93;12.53;;;12.00;66.10;;;;;;8314799;28;20450;-75
2021/05/01 20:40:27;;;;;;;16.67;12.60;;;11.90;66.00;;;;;;8315540;28;20478;-74
2021/05/01 20:44:31;;;;;;;18.07;13.00;;;11.90;66.10;;;;;;8310669;28;20188;-74
2021/05/01 20:48:46;;;;;;;14.53;11.87;;;11.80;66.10;;;;;;8327047;28;20492;-74